createdAt,value
2023-01-07T00:00:48.584Z,0.00
2023-01-07T00:01:48.586Z,0.00
2023-01-07T00:02:48.634Z,0.00
2023-01-07T00:03:48.790Z,0.00
2023-01-07T00:04:48.537Z,0.00
2023-01-07T00:05:48.544Z,0.00
2023-01-07T00:06:48.540Z,0.00
2023-01-07T00:07:48.506Z,0.00
2023-01-07T00:08:48.498Z,0.00
2023-01-07T00:09:48.483Z,0.00
2023-01-07T00:10:48.472Z,0.00
2023-01-07T00:11:48.462Z,0.00
2023-01-07T00:12:48.462Z,0.00
2023-01-07T00:13:48.440Z,0.00
2023-01-07T00:14:48.432Z,0.00
2023-01-07T00:15:48.481Z,0.00
2023-01-07T00:16:48.414Z,0.00
2023-01-07T00:17:48.398Z,0.00
2023-01-07T00:18:48.385Z,0.00
2023-01-07T00:19:48.490Z,0.00
2023-01-07T00:20:48.362Z,0.00
2023-01-07T00:21:48.361Z,0.00
2023-01-07T00:22:48.336Z,0.00
2023-01-07T00:23:48.329Z,0.00
2023-01-07T00:24:48.317Z,0.00
2023-01-07T00:25:48.310Z,0.00
2023-01-07T00:26:48.314Z,0.00
2023-01-07T00:27:48.286Z,0.00
2023-01-07T00:28:48.270Z,0.00
2023-01-07T00:29:48.259Z,0.00
2023-01-07T00:30:48.250Z,0.00
2023-01-07T00:31:48.386Z,0.00
2023-01-07T00:32:48.225Z,0.00
2023-01-07T00:33:48.224Z,0.00
2023-01-07T00:34:48.205Z,0.00
2023-01-07T00:35:48.320Z,0.00
2023-01-07T00:36:48.198Z,0.00
2023-01-07T00:37:48.181Z,0.00
2023-01-07T00:38:48.160Z,0.00
2023-01-07T00:39:48.159Z,0.00
2023-01-07T00:40:48.137Z,0.00
2023-01-07T00:41:48.137Z,0.00
2023-01-07T00:42:48.119Z,0.00
2023-01-07T00:43:48.113Z,0.00
2023-01-07T00:44:48.095Z,0.00
2023-01-07T00:45:48.086Z,0.00
2023-01-07T00:46:48.097Z,0.00
2023-01-07T00:47:48.062Z,0.00
2023-01-07T00:48:48.051Z,0.00
2023-01-07T00:49:48.049Z,0.00
2023-01-07T00:50:48.033Z,0.00
2023-01-07T00:51:48.144Z,0.00
2023-01-07T00:52:48.007Z,0.00
2023-01-07T00:53:48.001Z,0.00
2023-01-07T00:54:48.020Z,0.00
2023-01-07T00:55:48.003Z,0.00
2023-01-07T00:56:47.980Z,0.00
2023-01-07T00:57:47.958Z,0.00
2023-01-07T00:58:47.943Z,0.00
2023-01-07T00:59:47.929Z,0.00
2023-01-07T01:00:47.967Z,0.00
2023-01-07T01:01:48.089Z,0.00
2023-01-07T01:02:47.952Z,0.00
2023-01-07T01:03:47.886Z,0.00
2023-01-07T01:04:47.874Z,0.00
2023-01-07T01:05:47.877Z,0.00
2023-01-07T01:06:47.872Z,0.00
2023-01-07T01:07:47.964Z,0.00
2023-01-07T01:08:47.841Z,0.00
2023-01-07T01:09:47.821Z,0.00
2023-01-07T01:10:47.823Z,0.00
2023-01-07T01:11:47.832Z,0.00
2023-01-07T01:12:47.817Z,0.00
2023-01-07T01:13:47.823Z,0.00
2023-01-07T01:14:47.861Z,0.00
2023-01-07T01:15:47.834Z,0.00
2023-01-07T01:16:47.842Z,0.00
2023-01-07T01:17:47.732Z,0.00
2023-01-07T01:18:47.721Z,0.00
2023-01-07T01:19:47.710Z,0.00
2023-01-07T01:20:47.705Z,0.00
2023-01-07T01:21:47.699Z,0.00
2023-01-07T01:22:47.677Z,0.00
2023-01-07T01:23:47.782Z,0.00
2023-01-07T01:24:47.654Z,0.00
2023-01-07T01:25:47.664Z,0.00
2023-01-07T01:26:47.633Z,0.00
2023-01-07T01:27:47.630Z,0.00
2023-01-07T01:28:47.613Z,0.00
2023-01-07T01:29:47.602Z,0.00
2023-01-07T01:30:47.605Z,0.00
2023-01-07T01:31:47.598Z,0.00
2023-01-07T01:32:47.584Z,0.00
2023-01-07T01:33:47.553Z,0.00
2023-01-07T01:34:47.554Z,0.00
2023-01-07T01:35:47.536Z,0.00
2023-01-07T01:36:47.533Z,0.00
2023-01-07T01:37:47.514Z,0.00
2023-01-07T01:38:47.503Z,0.00
2023-01-07T01:39:47.601Z,0.00
2023-01-07T01:40:47.482Z,0.00
2023-01-07T01:41:47.495Z,0.00
2023-01-07T01:42:47.460Z,0.00
2023-01-07T01:43:47.443Z,0.00
2023-01-07T01:44:47.433Z,0.00
2023-01-07T01:45:47.425Z,0.00
2023-01-07T01:46:47.469Z,0.00
2023-01-07T01:47:47.399Z,0.00
2023-01-07T01:48:47.395Z,0.00
2023-01-07T01:49:47.379Z,0.00
2023-01-07T01:50:47.379Z,0.00
2023-01-07T01:51:47.379Z,0.00
2023-01-07T01:52:48.696Z,0.00
2023-01-07T01:53:47.334Z,0.00
2023-01-07T01:54:47.328Z,0.00
2023-01-07T01:55:47.440Z,0.00
2023-01-07T01:56:47.323Z,0.00
2023-01-07T01:57:47.291Z,0.00
2023-01-07T01:58:47.278Z,0.00
2023-01-07T01:59:47.272Z,0.00
2023-01-07T02:00:47.331Z,0.00
2023-01-07T02:01:47.395Z,0.00
2023-01-07T02:02:47.317Z,0.00
2023-01-07T02:03:47.225Z,0.00
2023-01-07T02:04:47.215Z,0.00
2023-01-07T02:05:47.213Z,0.00
2023-01-07T02:06:47.192Z,0.00
2023-01-07T02:07:47.179Z,0.00
2023-01-07T02:08:47.179Z,0.00
2023-01-07T02:09:47.165Z,0.00
2023-01-07T02:10:47.161Z,0.00
2023-01-07T02:11:47.258Z,0.00
2023-01-07T02:12:47.137Z,0.00
2023-01-07T02:13:47.115Z,0.00
2023-01-07T02:14:47.105Z,0.00
2023-01-07T02:15:47.103Z,0.00
2023-01-07T02:16:47.138Z,0.00
2023-01-07T02:17:47.077Z,0.00
2023-01-07T02:18:47.065Z,0.00
2023-01-07T02:19:47.051Z,0.00
2023-01-07T02:20:47.051Z,0.00
2023-01-07T02:21:47.026Z,0.00
2023-01-07T02:22:47.018Z,0.00
2023-01-07T02:23:47.007Z,0.00
2023-01-07T02:24:46.995Z,0.00
2023-01-07T02:25:47.006Z,0.00
2023-01-07T02:26:46.979Z,0.00
2023-01-07T02:27:47.107Z,0.00
2023-01-07T02:28:46.951Z,0.00
2023-01-07T02:29:46.963Z,0.00
2023-01-07T02:30:46.952Z,0.00
2023-01-07T02:31:47.008Z,0.00
2023-01-07T02:32:46.907Z,0.00
2023-01-07T02:33:46.896Z,0.00
2023-01-07T02:34:46.885Z,0.00
2023-01-07T02:35:46.884Z,0.00
2023-01-07T02:36:46.865Z,0.00
2023-01-07T02:37:46.854Z,0.00
2023-01-07T02:38:46.840Z,0.00
2023-01-07T02:39:46.838Z,0.00
2023-01-07T02:40:46.839Z,0.00
2023-01-07T02:41:46.807Z,0.00
2023-01-07T02:42:46.798Z,0.00
2023-01-07T02:43:46.896Z,0.00
2023-01-07T02:44:46.774Z,0.00
2023-01-07T02:45:46.803Z,0.00
2023-01-07T02:46:46.751Z,0.00
2023-01-07T02:47:46.738Z,0.00
2023-01-07T02:48:46.729Z,0.00
2023-01-07T02:49:46.721Z,0.00
2023-01-07T02:50:46.717Z,0.00
2023-01-07T02:51:46.699Z,0.00
2023-01-07T02:52:46.688Z,0.00
2023-01-07T02:53:46.674Z,0.00
2023-01-07T02:54:46.667Z,0.00
2023-01-07T02:55:46.665Z,0.00
2023-01-07T02:56:46.644Z,0.00
2023-01-07T02:57:46.630Z,0.00
2023-01-07T02:58:46.620Z,0.00
2023-01-07T02:59:46.716Z,0.00
2023-01-07T03:00:46.643Z,0.00
2023-01-07T03:01:46.733Z,0.00
2023-01-07T03:02:46.580Z,0.00
2023-01-07T03:03:46.593Z,0.00
2023-01-07T03:04:46.555Z,0.00
2023-01-07T03:05:46.555Z,0.00
2023-01-07T03:06:46.538Z,0.00
2023-01-07T03:07:46.520Z,0.00
2023-01-07T03:08:46.512Z,0.00
2023-01-07T03:09:46.505Z,0.00
2023-01-07T03:10:46.499Z,0.00
2023-01-07T03:11:46.478Z,0.00
2023-01-07T03:12:46.472Z,0.00
2023-01-07T03:13:46.454Z,0.00
2023-01-07T03:14:46.443Z,0.00
2023-01-07T03:15:46.571Z,0.00
2023-01-07T03:16:46.445Z,0.00
2023-01-07T03:17:46.410Z,0.00
2023-01-07T03:18:46.400Z,0.00
2023-01-07T03:19:46.389Z,0.00
2023-01-07T03:20:46.388Z,0.00
2023-01-07T03:21:46.371Z,0.00
2023-01-07T03:22:46.360Z,0.00
2023-01-07T03:23:46.345Z,0.00
2023-01-07T03:24:46.342Z,0.00
2023-01-07T03:25:46.336Z,0.00
2023-01-07T03:26:46.316Z,0.00
2023-01-07T03:27:46.303Z,0.00
2023-01-07T03:28:46.293Z,0.00
2023-01-07T03:29:46.278Z,0.00
2023-01-07T03:30:46.286Z,0.00
2023-01-07T03:31:46.428Z,0.00
2023-01-07T03:32:46.252Z,0.00
2023-01-07T03:33:46.237Z,0.00
2023-01-07T03:34:46.229Z,0.00
2023-01-07T03:35:46.229Z,0.00
2023-01-07T03:36:46.204Z,0.00
2023-01-07T03:37:46.201Z,0.00
2023-01-07T03:38:46.234Z,0.00
2023-01-07T03:39:46.170Z,0.00
2023-01-07T03:40:46.177Z,0.00
2023-01-07T03:41:46.149Z,0.00
2023-01-07T03:42:46.139Z,0.00
2023-01-07T03:43:46.149Z,0.00
2023-01-07T03:44:46.119Z,0.00
2023-01-07T03:45:46.186Z,0.00
2023-01-07T03:46:46.100Z,0.00
2023-01-07T03:47:46.212Z,0.00
2023-01-07T03:48:46.075Z,0.00
2023-01-07T03:49:46.069Z,0.00
2023-01-07T03:50:46.063Z,0.00
2023-01-07T03:51:46.053Z,0.00
2023-01-07T03:52:46.034Z,0.00
2023-01-07T03:53:46.018Z,0.00
2023-01-07T03:54:46.011Z,0.00
2023-01-07T03:55:46.009Z,0.00
2023-01-07T03:56:45.995Z,0.00
2023-01-07T03:57:45.974Z,0.00
2023-01-07T03:58:45.965Z,0.00
2023-01-07T03:59:45.957Z,0.00
2023-01-07T04:00:46.029Z,0.00
2023-01-07T04:01:46.195Z,0.00
2023-01-07T04:02:45.926Z,0.00
2023-01-07T04:03:46.026Z,0.00
2023-01-07T04:04:45.978Z,0.00
2023-01-07T04:05:45.887Z,0.00
2023-01-07T04:06:45.902Z,0.00
2023-01-07T04:07:45.869Z,0.00
2023-01-07T04:08:45.854Z,0.00
2023-01-07T04:09:45.841Z,0.00
2023-01-07T04:10:45.843Z,0.00
2023-01-07T04:11:45.830Z,0.00
2023-01-07T04:12:45.814Z,0.00
2023-01-07T04:13:45.797Z,0.00
2023-01-07T04:14:45.785Z,0.00
2023-01-07T04:15:45.791Z,0.00
2023-01-07T04:16:45.801Z,0.00
2023-01-07T04:17:45.763Z,0.00
2023-01-07T04:18:45.748Z,0.00
2023-01-07T04:19:45.851Z,0.00
2023-01-07T04:20:45.730Z,0.00
2023-01-07T04:21:45.711Z,0.00
2023-01-07T04:22:45.701Z,0.00
2023-01-07T04:23:45.688Z,0.00
2023-01-07T04:24:45.677Z,0.00
2023-01-07T04:25:45.687Z,0.00
2023-01-07T04:26:45.702Z,0.00
2023-01-07T04:27:45.643Z,0.00
2023-01-07T04:28:45.649Z,0.00
2023-01-07T04:29:45.644Z,0.00
2023-01-07T04:30:45.699Z,0.00
2023-01-07T04:31:45.604Z,0.00
2023-01-07T04:32:45.594Z,0.00
2023-01-07T04:33:45.581Z,0.00
2023-01-07T04:34:45.569Z,0.00
2023-01-07T04:35:45.697Z,0.00
2023-01-07T04:36:45.551Z,0.00
2023-01-07T04:37:45.536Z,0.00
2023-01-07T04:38:45.529Z,0.00
2023-01-07T04:39:45.514Z,0.00
2023-01-07T04:40:45.528Z,0.00
2023-01-07T04:41:45.491Z,0.00
2023-01-07T04:42:45.494Z,0.00
2023-01-07T04:43:45.480Z,0.00
2023-01-07T04:44:45.482Z,0.00
2023-01-07T04:45:45.520Z,0.00
2023-01-07T04:46:45.450Z,0.00
2023-01-07T04:47:45.425Z,0.00
2023-01-07T04:48:45.426Z,0.00
2023-01-07T04:49:45.404Z,0.00
2023-01-07T04:50:45.394Z,0.00
2023-01-07T04:51:45.507Z,0.00
2023-01-07T04:52:48.290Z,0.00
2023-01-07T04:53:53.190Z,0.00
2023-01-07T04:54:45.360Z,0.00
2023-01-07T04:55:46.472Z,0.00
2023-01-07T04:56:45.351Z,0.00
2023-01-07T04:57:45.347Z,0.00
2023-01-07T04:58:45.315Z,0.00
2023-01-07T04:59:45.319Z,0.00
2023-01-07T05:00:45.313Z,0.00
2023-01-07T05:01:45.436Z,0.00
2023-01-07T05:02:45.279Z,0.00
2023-01-07T05:03:45.273Z,0.00
2023-01-07T05:04:45.280Z,0.00
2023-01-07T05:05:45.255Z,0.00
2023-01-07T05:06:45.233Z,0.00
2023-01-07T05:07:53.343Z,0.00
2023-01-07T05:08:45.223Z,0.00
2023-01-07T05:09:45.193Z,0.00
2023-01-07T05:10:45.200Z,0.00
2023-01-07T05:11:45.198Z,0.00
2023-01-07T05:12:45.156Z,0.00
2023-01-07T05:13:45.147Z,0.00
2023-01-07T05:14:45.155Z,0.00
2023-01-07T05:15:45.138Z,0.00
2023-01-07T05:16:45.261Z,0.00
2023-01-07T05:17:45.108Z,0.00
2023-01-07T05:18:45.106Z,0.00
2023-01-07T05:19:45.094Z,0.00
2023-01-07T05:20:45.084Z,0.00
2023-01-07T05:21:45.063Z,0.00
2023-01-07T05:22:45.062Z,0.00
2023-01-07T05:23:52.771Z,0.00
2023-01-07T05:24:45.028Z,0.00
2023-01-07T05:25:45.155Z,0.00
2023-01-07T05:26:45.010Z,0.00
2023-01-07T05:27:44.996Z,0.00
2023-01-07T05:28:44.987Z,0.00
2023-01-07T05:29:44.985Z,0.00
2023-01-07T05:30:44.994Z,0.00
2023-01-07T05:31:44.951Z,0.00
2023-01-07T05:32:44.954Z,0.00
2023-01-07T05:33:44.935Z,0.00
2023-01-07T05:34:44.916Z,0.00
2023-01-07T05:35:44.919Z,0.00
2023-01-07T05:36:52.769Z,0.00
2023-01-07T05:37:44.886Z,0.00
2023-01-07T05:38:44.877Z,0.00
2023-01-07T05:39:45.099Z,0.00
2023-01-07T05:40:44.851Z,0.00
2023-01-07T05:41:44.846Z,0.00
2023-01-07T05:42:44.869Z,0.00
2023-01-07T05:43:44.830Z,0.00
2023-01-07T05:44:44.866Z,0.00
2023-01-07T05:45:44.829Z,0.00
2023-01-07T05:46:44.785Z,0.00
2023-01-07T05:47:44.823Z,0.00
2023-01-07T05:48:44.760Z,0.00
2023-01-07T05:49:44.768Z,0.00
2023-01-07T05:50:44.743Z,0.00
2023-01-07T05:51:44.733Z,0.00
2023-01-07T05:52:44.717Z,0.00
2023-01-07T05:53:44.715Z,0.00
2023-01-07T05:54:44.711Z,0.00
2023-01-07T05:55:44.814Z,0.00
2023-01-07T05:56:44.683Z,0.00
2023-01-07T05:57:44.664Z,0.00
2023-01-07T05:58:44.665Z,0.00
2023-01-07T05:59:44.659Z,0.00
2023-01-07T06:00:44.631Z,0.00
2023-01-07T06:01:44.623Z,0.00
2023-01-07T06:02:44.610Z,0.00
2023-01-07T06:03:44.647Z,0.00
2023-01-07T06:04:44.667Z,0.00
2023-01-07T06:05:44.576Z,0.00
2023-01-07T06:06:44.564Z,0.00
2023-01-07T06:07:44.557Z,0.00
2023-01-07T06:08:44.593Z,0.00
2023-01-07T06:09:44.558Z,0.00
2023-01-07T06:10:44.523Z,0.00
2023-01-07T06:11:44.631Z,0.00
2023-01-07T06:12:44.503Z,0.00
2023-01-07T06:13:44.513Z,0.00
2023-01-07T06:14:44.476Z,0.00
2023-01-07T06:15:44.499Z,0.00
2023-01-07T06:16:44.475Z,0.00
2023-01-07T06:17:44.445Z,0.00
2023-01-07T06:18:44.440Z,0.00
2023-01-07T06:19:44.438Z,0.00
2023-01-07T06:20:44.414Z,0.00
2023-01-07T06:21:44.407Z,0.00
2023-01-07T06:22:44.390Z,0.00
2023-01-07T06:23:44.390Z,0.00
2023-01-07T06:24:44.375Z,0.00
2023-01-07T06:25:44.357Z,0.00
2023-01-07T06:26:44.345Z,0.00
2023-01-07T06:27:44.454Z,0.00
2023-01-07T06:28:44.352Z,0.00
2023-01-07T06:29:44.319Z,0.00
2023-01-07T06:30:44.311Z,0.00
2023-01-07T06:31:44.292Z,0.00
2023-01-07T06:32:44.283Z,0.00
2023-01-07T06:33:44.284Z,0.00
2023-01-07T06:34:44.259Z,0.00
2023-01-07T06:35:44.257Z,0.00
2023-01-07T06:36:44.238Z,0.00
2023-01-07T06:37:44.223Z,0.00
2023-01-07T06:38:44.237Z,0.00
2023-01-07T06:39:44.207Z,0.00
2023-01-07T06:40:44.215Z,0.00
2023-01-07T06:41:44.186Z,0.00
2023-01-07T06:42:44.179Z,0.00
2023-01-07T06:43:44.291Z,0.00
2023-01-07T06:44:44.157Z,0.00
2023-01-07T06:45:44.154Z,4.00
2023-01-07T06:46:44.176Z,0.00
2023-01-07T06:47:44.118Z,0.00
2023-01-07T06:48:44.146Z,4.00
2023-01-07T06:49:44.094Z,4.00
2023-01-07T06:50:44.083Z,4.00
2023-01-07T06:51:44.077Z,4.00
2023-01-07T06:52:44.066Z,4.00
2023-01-07T06:53:51.173Z,4.00
2023-01-07T06:54:44.043Z,8.00
2023-01-07T06:55:44.025Z,4.00
2023-01-07T06:56:44.016Z,4.00
2023-01-07T06:57:44.025Z,4.00
2023-01-07T06:58:44.011Z,8.00
2023-01-07T06:59:44.109Z,8.00
2023-01-07T07:00:43.973Z,12.00
2023-01-07T07:01:46.319Z,12.00
2023-01-07T07:02:44.049Z,16.00
2023-01-07T07:03:44.165Z,16.00
2023-01-07T07:04:43.942Z,20.00
2023-01-07T07:05:43.920Z,20.00
2023-01-07T07:06:43.904Z,24.00
2023-01-07T07:07:51.837Z,32.00
2023-01-07T07:08:43.899Z,40.00
2023-01-07T07:09:43.891Z,44.00
2023-01-07T07:10:43.872Z,44.00
2023-01-07T07:11:43.858Z,44.00
2023-01-07T07:12:43.850Z,44.00
2023-01-07T07:13:43.830Z,40.00
2023-01-07T07:14:43.826Z,44.00
2023-01-07T07:15:43.949Z,48.00
2023-01-07T07:16:43.803Z,56.00
2023-01-07T07:17:43.804Z,56.00
2023-01-07T07:18:43.775Z,56.00
2023-01-07T07:19:43.762Z,56.00
2023-01-07T07:20:43.752Z,56.00
2023-01-07T07:21:43.744Z,56.00
2023-01-07T07:22:43.744Z,56.00
2023-01-07T07:23:43.723Z,60.00
2023-01-07T07:24:43.711Z,64.00
2023-01-07T07:25:43.707Z,68.00
2023-01-07T07:26:43.684Z,68.00
2023-01-07T07:27:43.692Z,68.00
2023-01-07T07:28:43.663Z,76.00
2023-01-07T07:29:43.659Z,80.00
2023-01-07T07:30:45.662Z,84.00
2023-01-07T07:31:43.851Z,84.00
2023-01-07T07:32:43.640Z,88.00
2023-01-07T07:33:43.623Z,92.00
2023-01-07T07:34:43.599Z,92.00
2023-01-07T07:35:43.591Z,100.00
2023-01-07T07:36:43.579Z,104.00
2023-01-07T07:37:43.583Z,116.00
2023-01-07T07:38:43.560Z,128.00
2023-01-07T07:39:43.544Z,136.00
2023-01-07T07:40:43.534Z,152.00
2023-01-07T07:41:43.527Z,160.00
2023-01-07T07:43:11.165Z,156.00
2023-01-07T07:43:44.501Z,160.00
2023-01-07T07:44:43.488Z,156.00
2023-01-07T07:45:43.482Z,164.00
2023-01-07T07:46:43.549Z,168.00
2023-01-07T07:47:43.578Z,172.00
2023-01-07T07:48:43.443Z,168.00
2023-01-07T07:49:43.435Z,164.00
2023-01-07T07:50:43.469Z,156.00
2023-01-07T07:51:43.420Z,160.00
2023-01-07T07:52:43.419Z,160.00
2023-01-07T07:53:43.410Z,168.00
2023-01-07T07:54:43.397Z,172.00
2023-01-07T07:55:43.426Z,172.00
2023-01-07T07:56:43.373Z,168.00
2023-01-07T07:57:43.361Z,180.00
2023-01-07T07:58:51.405Z,184.00
2023-01-07T07:59:50.878Z,188.00
2023-01-07T08:00:43.315Z,196.00
2023-01-07T08:01:43.424Z,204.00
2023-01-07T08:02:43.324Z,212.00
2023-01-07T08:03:43.507Z,220.00
2023-01-07T08:04:43.268Z,232.00
2023-01-07T08:05:43.269Z,252.00
2023-01-07T08:06:43.245Z,276.00
2023-01-07T08:07:43.236Z,296.00
2023-01-07T08:08:43.238Z,320.00
2023-01-07T08:09:43.219Z,328.00
2023-01-07T08:10:43.204Z,340.00
2023-01-07T08:11:43.194Z,352.00
2023-01-07T08:12:43.179Z,364.00
2023-01-07T08:13:43.184Z,384.00
2023-01-07T08:14:43.949Z,380.00
2023-01-07T08:15:43.156Z,372.00
2023-01-07T08:16:43.150Z,384.00
2023-01-07T08:17:43.131Z,380.00
2023-01-07T08:18:43.125Z,400.00
2023-01-07T08:19:43.122Z,476.00
2023-01-07T08:20:43.094Z,436.00
2023-01-07T08:21:43.096Z,380.00
2023-01-07T08:22:43.079Z,356.00
2023-01-07T08:23:43.063Z,380.00
2023-01-07T08:24:43.050Z,404.00
2023-01-07T08:25:43.089Z,400.00
2023-01-07T08:26:43.038Z,352.00
2023-01-07T08:27:43.040Z,320.00
2023-01-07T08:28:44.602Z,328.00
2023-01-07T08:29:43.012Z,360.00
2023-01-07T08:30:42.986Z,408.00
2023-01-07T08:31:43.083Z,484.00
2023-01-07T08:32:42.967Z,552.00
2023-01-07T08:33:42.972Z,552.00
2023-01-07T08:34:42.956Z,596.00
2023-01-07T08:35:43.043Z,812.00
2023-01-07T08:36:42.923Z,1116.00
2023-01-07T08:37:42.932Z,1452.00
2023-01-07T08:38:42.901Z,1700.00
2023-01-07T08:39:42.895Z,1904.00
2023-01-07T08:40:42.883Z,2572.00
2023-01-07T08:41:42.870Z,3308.00
2023-01-07T08:42:42.871Z,4056.00
2023-01-07T08:43:42.848Z,6140.00
2023-01-07T08:44:42.841Z,16512.00
2023-01-07T08:45:42.824Z,20480.00
2023-01-07T08:46:42.979Z,15776.00
2023-01-07T08:47:44.422Z,10268.00
2023-01-07T08:48:42.796Z,5672.00
2023-01-07T08:49:42.779Z,4744.00
2023-01-07T08:50:42.774Z,4044.00
2023-01-07T08:51:42.878Z,3124.00
2023-01-07T08:52:42.768Z,2644.00
2023-01-07T08:53:42.750Z,2280.00
2023-01-07T08:54:42.724Z,1924.00
2023-01-07T08:55:42.712Z,1504.00
2023-01-07T08:56:42.705Z,1200.00
2023-01-07T08:57:42.723Z,1020.00
2023-01-07T08:58:42.681Z,916.00
2023-01-07T08:59:42.674Z,896.00
2023-01-07T09:00:42.682Z,932.00
2023-01-07T09:01:42.879Z,968.00
2023-01-07T09:02:42.703Z,964.00
2023-01-07T09:03:42.625Z,984.00
2023-01-07T09:04:42.612Z,992.00
2023-01-07T09:05:42.605Z,1028.00
2023-01-07T09:06:42.592Z,1040.00
2023-01-07T09:07:42.761Z,1012.00
2023-01-07T09:08:42.592Z,956.00
2023-01-07T09:09:42.561Z,896.00
2023-01-07T09:10:42.547Z,848.00
2023-01-07T09:11:42.535Z,828.00
2023-01-07T09:12:42.542Z,828.00
2023-01-07T09:13:42.512Z,852.00
2023-01-07T09:14:42.536Z,880.00
2023-01-07T09:15:42.492Z,888.00
2023-01-07T09:16:42.506Z,904.00
2023-01-07T09:17:42.541Z,924.00
2023-01-07T09:18:42.467Z,924.00
2023-01-07T09:19:42.447Z,892.00
2023-01-07T09:20:42.440Z,936.00
2023-01-07T09:21:42.432Z,960.00
2023-01-07T09:22:42.433Z,984.00
2023-01-07T09:23:42.515Z,1052.00
2023-01-07T09:24:42.394Z,1132.00
2023-01-07T09:25:42.387Z,1160.00
2023-01-07T09:26:42.372Z,1148.00
2023-01-07T09:27:42.377Z,1100.00
2023-01-07T09:28:42.356Z,1040.00
2023-01-07T09:29:42.348Z,1000.00
2023-01-07T09:30:42.343Z,1008.00
2023-01-07T09:31:42.355Z,1056.00
2023-01-07T09:32:42.308Z,1116.00
2023-01-07T09:33:42.294Z,1176.00
2023-01-07T09:34:42.287Z,1224.00
2023-01-07T09:35:42.272Z,1392.00
2023-01-07T09:36:42.281Z,1552.00
2023-01-07T09:37:42.258Z,1568.00
2023-01-07T09:38:42.241Z,1512.00
2023-01-07T09:39:42.358Z,1436.00
2023-01-07T09:40:42.223Z,1396.00
2023-01-07T09:41:42.222Z,1424.00
2023-01-07T09:42:42.231Z,1416.00
2023-01-07T09:44:00.067Z,1448.00
2023-01-07T09:44:43.174Z,1484.00
2023-01-07T09:45:42.200Z,1580.00
2023-01-07T09:46:42.166Z,1748.00
2023-01-07T09:47:42.145Z,1792.00
2023-01-07T09:48:42.139Z,1872.00
2023-01-07T09:49:42.122Z,2060.00
2023-01-07T09:50:42.124Z,2232.00
2023-01-07T09:51:42.114Z,2560.00
2023-01-07T09:52:42.103Z,2868.00
2023-01-07T09:53:42.073Z,3232.00
2023-01-07T09:54:42.069Z,3408.00
2023-01-07T09:56:10.937Z,3740.00
2023-01-07T09:56:43.062Z,3684.00
2023-01-07T09:57:42.034Z,4044.00
2023-01-07T09:58:42.038Z,4944.00
2023-01-07T09:59:42.008Z,4816.00
2023-01-07T10:00:42.001Z,4128.00
2023-01-07T10:01:42.002Z,4220.00
2023-01-07T10:02:42.047Z,3964.00
2023-01-07T10:03:42.009Z,3808.00
2023-01-07T10:04:41.981Z,4220.00
2023-01-07T10:05:41.966Z,4028.00
2023-01-07T10:06:43.960Z,4988.00
2023-01-07T10:07:41.917Z,4756.00
2023-01-07T10:08:41.910Z,4340.00
2023-01-07T10:09:41.916Z,5204.00
2023-01-07T10:10:41.895Z,4204.00
2023-01-07T10:11:44.109Z,3848.00
2023-01-07T10:12:41.970Z,3224.00
2023-01-07T10:13:41.920Z,3064.00
2023-01-07T10:14:41.844Z,2592.00
2023-01-07T10:15:41.831Z,2292.00
2023-01-07T10:16:41.885Z,2028.00
2023-01-07T10:17:41.809Z,1936.00
2023-01-07T10:18:41.803Z,2016.00
2023-01-07T10:19:41.789Z,2112.00
2023-01-07T10:20:41.781Z,2444.00
2023-01-07T10:21:41.779Z,2760.00
2023-01-07T10:22:41.757Z,2856.00
2023-01-07T10:23:41.746Z,9084.00
2023-01-07T10:24:41.777Z,7472.00
2023-01-07T10:25:41.730Z,31232.00
2023-01-07T10:26:41.743Z,3728.00
2023-01-07T10:27:41.819Z,4884.00
2023-01-07T10:28:41.701Z,3820.00
2023-01-07T10:29:41.681Z,3420.00
2023-01-07T10:30:41.929Z,3164.00
2023-01-07T10:31:41.737Z,3488.00
2023-01-07T10:32:41.645Z,3144.00
2023-01-07T10:33:41.634Z,3756.00
2023-01-07T10:34:41.628Z,2776.00
2023-01-07T10:35:41.613Z,2876.00
2023-01-07T10:36:41.624Z,3044.00
2023-01-07T10:37:41.592Z,3192.00
2023-01-07T10:38:41.580Z,3508.00
2023-01-07T10:39:41.569Z,5268.00
2023-01-07T10:40:41.556Z,3500.00
2023-01-07T10:41:41.572Z,3180.00
2023-01-07T10:42:41.537Z,2916.00
2023-01-07T10:43:41.648Z,2804.00
2023-01-07T10:44:41.515Z,2696.00
2023-01-07T10:45:41.531Z,2740.00
2023-01-07T10:46:41.516Z,2684.00
2023-01-07T10:47:41.485Z,2600.00
2023-01-07T10:48:41.479Z,2528.00
2023-01-07T10:49:41.462Z,2388.00
2023-01-07T10:50:41.487Z,2372.00
2023-01-07T10:51:41.457Z,2512.00
2023-01-07T10:52:41.443Z,2596.00
2023-01-07T10:53:41.417Z,2564.00
2023-01-07T10:54:41.411Z,2452.00
2023-01-07T10:55:41.403Z,2376.00
2023-01-07T10:56:41.408Z,2336.00
2023-01-07T10:57:41.369Z,2388.00
2023-01-07T10:58:41.386Z,2480.00
2023-01-07T10:59:41.468Z,2776.00
2023-01-07T11:00:41.368Z,3084.00
2023-01-07T11:01:41.477Z,3332.00
2023-01-07T11:02:41.395Z,3484.00
2023-01-07T11:03:41.305Z,3584.00
2023-01-07T11:04:41.297Z,3424.00
2023-01-07T11:05:41.303Z,3452.00
2023-01-07T11:06:41.305Z,3896.00
2023-01-07T11:07:41.269Z,4300.00
2023-01-07T11:08:41.277Z,4604.00
2023-01-07T11:09:41.247Z,4908.00
2023-01-07T11:10:41.275Z,4768.00
2023-01-07T11:11:41.219Z,4468.00
2023-01-07T11:12:41.213Z,3808.00
2023-01-07T11:13:41.196Z,3324.00
2023-01-07T11:14:41.187Z,2960.00
2023-01-07T11:15:41.304Z,2700.00
2023-01-07T11:16:41.205Z,2704.00
2023-01-07T11:17:41.160Z,2772.00
2023-01-07T11:18:41.153Z,3052.00
2023-01-07T11:19:41.129Z,3436.00
2023-01-07T11:20:41.156Z,3700.00
2023-01-07T11:21:44.085Z,3772.00
2023-01-07T11:22:41.109Z,3812.00
2023-01-07T11:23:43.773Z,3724.00
2023-01-07T11:24:41.075Z,3596.00
2023-01-07T11:25:41.082Z,3820.00
2023-01-07T11:26:41.054Z,4128.00
2023-01-07T11:27:41.043Z,4128.00
2023-01-07T11:28:41.032Z,4100.00
2023-01-07T11:29:41.024Z,4120.00
2023-01-07T11:31:02.131Z,4140.00
2023-01-07T11:31:41.085Z,4136.00
2023-01-07T11:32:40.992Z,4284.00
2023-01-07T11:34:01.786Z,4284.00
2023-01-07T11:34:41.964Z,4240.00
2023-01-07T11:35:40.969Z,4232.00
2023-01-07T11:36:40.956Z,4340.00
2023-01-07T11:37:40.934Z,4452.00
2023-01-07T11:38:40.925Z,4688.00
2023-01-07T11:39:40.921Z,4744.00
2023-01-07T11:40:40.925Z,4776.00
2023-01-07T11:41:40.908Z,4400.00
2023-01-07T11:42:40.913Z,4100.00
2023-01-07T11:43:40.894Z,3952.00
2023-01-07T11:44:40.863Z,3528.00
2023-01-07T11:45:40.903Z,3648.00
2023-01-07T11:46:41.009Z,3296.00
2023-01-07T11:47:40.828Z,3612.00
2023-01-07T11:48:40.811Z,3412.00
2023-01-07T11:49:40.800Z,3220.00
2023-01-07T11:50:40.851Z,3216.00
2023-01-07T11:51:40.787Z,3600.00
2023-01-07T11:52:40.767Z,3652.00
2023-01-07T11:53:40.771Z,3352.00
2023-01-07T11:54:40.751Z,3052.00
2023-01-07T11:55:40.753Z,2968.00
2023-01-07T11:56:40.728Z,2768.00
2023-01-07T11:57:40.714Z,2636.00
2023-01-07T11:58:40.707Z,2568.00
2023-01-07T11:59:48.470Z,2652.00
2023-01-07T12:00:40.714Z,2832.00
2023-01-07T12:01:40.685Z,3040.00
2023-01-07T12:02:40.833Z,3196.00
2023-01-07T12:03:40.742Z,3228.00
2023-01-07T12:04:40.637Z,3264.00
2023-01-07T12:05:40.646Z,3288.00
2023-01-07T12:06:40.620Z,3240.00
2023-01-07T12:07:41.958Z,3232.00
2023-01-07T12:08:40.596Z,3128.00
2023-01-07T12:09:40.645Z,2936.00
2023-01-07T12:10:40.583Z,2736.00
2023-01-07T12:11:40.576Z,2584.00
2023-01-07T12:12:40.677Z,2452.00
2023-01-07T12:13:40.541Z,2368.00
2023-01-07T12:14:40.525Z,2280.00
2023-01-07T12:15:40.520Z,2192.00
2023-01-07T12:16:40.560Z,2100.00
2023-01-07T12:17:40.502Z,1960.00
2023-01-07T12:18:40.605Z,1832.00
2023-01-07T12:19:40.484Z,1708.00
2023-01-07T12:20:40.460Z,1608.00
2023-01-07T12:21:40.483Z,1512.00
2023-01-07T12:22:40.448Z,1428.00
2023-01-07T12:23:40.429Z,1368.00
2023-01-07T12:24:40.476Z,1336.00
2023-01-07T12:25:40.568Z,1332.00
2023-01-07T12:26:40.409Z,1340.00
2023-01-07T12:27:40.521Z,1352.00
2023-01-07T12:28:40.402Z,1348.00
2023-01-07T12:29:48.001Z,1348.00
2023-01-07T12:30:43.998Z,1376.00
2023-01-07T12:31:48.102Z,1404.00
2023-01-07T12:32:40.333Z,1460.00
2023-01-07T12:34:30.357Z,1604.00
2023-01-07T12:35:30.226Z,1636.00
2023-01-07T12:36:30.207Z,1588.00
2023-01-07T12:37:30.187Z,1516.00
2023-01-07T12:38:30.166Z,1424.00
2023-01-07T12:39:30.164Z,1360.00
2023-01-07T12:40:30.165Z,1308.00
2023-01-07T12:41:30.178Z,1280.00
2023-01-07T12:42:30.189Z,1256.00
2023-01-07T12:43:30.122Z,1252.00
2023-01-07T12:44:37.916Z,1256.00
2023-01-07T12:45:30.125Z,1288.00
2023-01-07T12:46:32.352Z,1332.00
2023-01-07T12:47:35.033Z,1376.00
2023-01-07T12:49:41.153Z,1384.00
2023-01-07T12:50:41.048Z,1352.00